createdAt,value
2018-03-09T00:02:04.784Z,99631.09
2018-03-09T00:04:40.126Z,99634.85
2018-03-09T00:07:15.028Z,99638.27
2018-03-09T00:09:49.863Z,99640.84
2018-03-09T00:12:25.303Z,99645.88
2018-03-09T00:15:00.380Z,99645.84
2018-03-09T00:17:35.357Z,99650.78
2018-03-09T00:20:10.628Z,99658.98
2018-03-09T00:22:45.490Z,99664.59
2018-03-09T00:25:20.791Z,99665.17
2018-03-09T00:27:55.503Z,99662.41
2018-03-09T00:30:30.467Z,99668.08
2018-03-09T00:33:05.431Z,99666.16
2018-03-09T00:35:40.411Z,99665.69
2018-03-09T00:38:15.632Z,99673.97
2018-03-09T00:40:50.639Z,99679.61
2018-03-09T00:43:25.673Z,99686.75
2018-03-09T00:46:00.599Z,99682.86
2018-03-09T00:48:35.828Z,99685.22
2018-03-09T00:51:17.829Z,99696.36
2018-03-09T00:53:52.756Z,99684.59
2018-03-09T00:56:28.269Z,99685.17
2018-03-09T00:59:03.423Z,99696.16
2018-03-09T01:01:38.543Z,99705.13
2018-03-09T01:04:13.165Z,99704.06
2018-03-09T01:06:48.475Z,99710.58
2018-03-09T01:09:23.802Z,99703.16
2018-03-09T01:11:58.626Z,99708.05
2018-03-09T01:14:33.530Z,99709.06
2018-03-09T01:17:08.654Z,99705.96
2018-03-09T01:19:43.480Z,99713.01
2018-03-09T01:22:18.499Z,99706.92
2018-03-09T01:24:53.594Z,99714.56
2018-03-09T01:27:28.586Z,99722.36
2018-03-09T01:30:03.331Z,99714.56
2018-03-09T01:32:38.551Z,99712.52
2018-03-09T01:35:13.666Z,99722.98
2018-03-09T01:37:48.514Z,99724.70
2018-03-09T01:40:23.830Z,99727.99
2018-03-09T01:42:58.634Z,99732.58
2018-03-09T01:45:33.639Z,99742.44
2018-03-09T01:48:08.639Z,99747.89
2018-03-09T01:50:43.626Z,99748.59
2018-03-09T01:53:18.983Z,99744.13
2018-03-09T01:55:53.819Z,99756.92
2018-03-09T01:58:28.960Z,99764.48
2018-03-09T02:01:04.592Z,99769.50
2018-03-09T02:03:39.858Z,99765.30
2018-03-09T02:06:14.662Z,99768.14
2018-03-09T02:08:49.500Z,99775.16
2018-03-09T02:11:24.046Z,99773.99
2018-03-09T02:13:58.639Z,99779.77
2018-03-09T02:16:33.757Z,99780.16
2018-03-09T02:19:08.827Z,99786.42
2018-03-09T02:21:43.642Z,99786.63
2018-03-09T02:24:18.726Z,99788.08
2018-03-09T02:26:53.723Z,99792.66
2018-03-09T02:29:28.716Z,99795.84
2018-03-09T02:32:03.780Z,99792.80
2018-03-09T02:34:38.719Z,99797.73
2018-03-09T02:37:13.699Z,99800.22
2018-03-09T02:39:48.796Z,99809.67
2018-03-09T02:42:23.806Z,99806.19
2018-03-09T02:44:58.760Z,99810.42
2018-03-09T02:47:33.987Z,99815.45
2018-03-09T02:50:08.689Z,99816.47
2018-03-09T02:52:43.710Z,99818.88
2018-03-09T02:55:18.835Z,99819.42
2018-03-09T02:57:53.747Z,99828.52
2018-03-09T03:00:28.843Z,99828.44
2018-03-09T03:03:03.699Z,99842.91
2018-03-09T03:05:38.941Z,99836.82
2018-03-09T03:08:13.784Z,99844.75
2018-03-09T03:10:49.022Z,99843.13
2018-03-09T03:13:24.433Z,99842.72
2018-03-09T03:15:59.952Z,99844.30
2018-03-09T03:18:34.924Z,99852.95
2018-03-09T03:21:10.194Z,99855.55
2018-03-09T03:23:45.156Z,99852.05
2018-03-09T03:26:20.098Z,99857.32
2018-03-09T03:28:55.135Z,99863.47
2018-03-09T03:31:30.224Z,99855.11
2018-03-09T03:34:05.450Z,99865.29
2018-03-09T03:36:40.879Z,99867.70
2018-03-09T03:39:16.025Z,99868.29
2018-03-09T03:41:50.955Z,99877.31
2018-03-09T03:44:25.630Z,99876.55
2018-03-09T03:47:00.899Z,99880.15
2018-03-09T03:49:35.871Z,99887.16
2018-03-09T03:52:10.906Z,99894.70
2018-03-09T03:54:45.428Z,99891.55
2018-03-09T03:57:20.279Z,99897.43
2018-03-09T03:59:55.027Z,99900.19
2018-03-09T04:02:29.955Z,99899.35
2018-03-09T04:05:05.116Z,99906.40
2018-03-09T04:07:39.954Z,99917.64
2018-03-09T04:10:15.310Z,99916.50
2018-03-09T04:12:50.119Z,99921.00
2018-03-09T04:15:25.251Z,99922.96
2018-03-09T04:18:00.299Z,99932.16
2018-03-09T04:20:35.506Z,99930.44
2018-03-09T04:23:10.943Z,99937.38
2018-03-09T04:25:45.966Z,99936.52
2018-03-09T04:28:21.390Z,99928.10
2018-03-09T04:30:56.120Z,99934.41
2018-03-09T04:33:31.299Z,99942.23
2018-03-09T04:36:06.048Z,99945.83
2018-03-09T04:38:41.036Z,99945.08
2018-03-09T04:41:15.458Z,99949.48
2018-03-09T04:43:49.999Z,99958.78
2018-03-09T04:46:25.146Z,99961.20
2018-03-09T04:48:59.640Z,99964.09
2018-03-09T04:51:34.959Z,99963.33
2018-03-09T04:54:10.093Z,99966.27
2018-03-09T04:56:44.907Z,99969.67
2018-03-09T04:59:19.575Z,99964.70
2018-03-09T05:01:54.510Z,99970.03
2018-03-09T05:04:29.533Z,99975.03
2018-03-09T05:07:05.003Z,99980.84
2018-03-09T05:09:39.639Z,99976.02
2018-03-09T05:12:15.054Z,99981.34
2018-03-09T05:14:49.934Z,99992.90
2018-03-09T05:17:25.095Z,99991.45
2018-03-09T05:20:00.430Z,99989.73
2018-03-09T05:22:35.323Z,99992.57
2018-03-09T05:25:10.369Z,99984.95
2018-03-09T05:27:45.420Z,99982.40
2018-03-09T05:30:21.064Z,99986.48
2018-03-09T05:32:56.161Z,99996.22
2018-03-09T05:35:31.143Z,99992.08
2018-03-09T05:38:06.291Z,100002.53
2018-03-09T05:40:40.587Z,100001.64
2018-03-09T05:43:15.411Z,100009.39
2018-03-09T05:45:50.631Z,100007.19
2018-03-09T05:48:25.666Z,100006.29
2018-03-09T05:51:00.204Z,100012.73
2018-03-09T05:53:35.330Z,100018.34
2018-03-09T05:56:10.117Z,100023.62
2018-03-09T05:58:44.979Z,100022.88
2018-03-09T06:01:19.636Z,100029.66
2018-03-09T06:03:54.501Z,100024.84
2018-03-09T06:06:29.766Z,100028.45
2018-03-09T06:09:04.682Z,100028.95
2018-03-09T06:11:40.067Z,100029.60
2018-03-09T06:14:15.222Z,100027.62
2018-03-09T06:16:50.249Z,100036.56
2018-03-09T06:19:25.346Z,100034.88
2018-03-09T06:22:00.390Z,100038.45
2018-03-09T06:24:35.058Z,100041.77
2018-03-09T06:27:10.568Z,100047.05
2018-03-09T06:29:45.305Z,100043.44
2018-03-09T06:32:20.287Z,100052.50
2018-03-09T06:34:55.610Z,100053.89
2018-03-09T06:37:31.171Z,100059.09
2018-03-09T06:40:06.434Z,100059.66
2018-03-09T06:42:41.735Z,100063.20
2018-03-09T06:45:16.814Z,100071.61
2018-03-09T06:47:51.905Z,100060.94
2018-03-09T06:50:27.240Z,100075.42
2018-03-09T06:53:02.481Z,100076.94
2018-03-09T06:55:38.226Z,100076.37
2018-03-09T06:58:13.476Z,100072.09
2018-03-09T07:00:48.059Z,100078.98
2018-03-09T07:03:23.575Z,100076.91
2018-03-09T07:05:58.724Z,100090.09
2018-03-09T07:08:34.174Z,100088.52
2018-03-09T07:11:08.841Z,100101.80
2018-03-09T07:13:43.671Z,100099.92
2018-03-09T07:16:18.626Z,100095.78
2018-03-09T07:18:53.555Z,100099.22
2018-03-09T07:21:27.912Z,100103.11
2018-03-09T07:24:03.347Z,100105.53
2018-03-09T07:26:38.286Z,100105.23
2018-03-09T07:29:13.346Z,100114.59
2018-03-09T07:31:48.393Z,100112.67
2018-03-09T07:34:23.649Z,100125.22
2018-03-09T07:36:58.610Z,100128.19
2018-03-09T07:39:33.660Z,100125.39
2018-03-09T07:42:08.977Z,100128.66
2018-03-09T07:44:43.965Z,100133.83
2018-03-09T07:47:18.915Z,100144.56
2018-03-09T07:49:54.001Z,100143.69
2018-03-09T07:52:29.760Z,100146.44
2018-03-09T07:55:04.466Z,100149.73
2018-03-09T07:57:39.811Z,100144.28
2018-03-09T08:00:15.012Z,100145.61
2018-03-09T08:02:52.334Z,100141.95
2018-03-09T08:05:27.569Z,100144.70
2018-03-09T08:08:02.854Z,100139.46
2018-03-09T08:10:38.479Z,100142.13
2018-03-09T08:13:13.164Z,100140.25
2018-03-09T08:15:47.679Z,100144.19
2018-03-09T08:18:22.976Z,100152.53
2018-03-09T08:20:57.621Z,100144.94
2018-03-09T08:23:33.425Z,100160.23
2018-03-09T08:26:08.959Z,100151.77
2018-03-09T08:28:43.893Z,100155.84
2018-03-09T08:31:19.203Z,100159.11
2018-03-09T08:33:53.794Z,100160.97
2018-03-09T08:36:28.828Z,100159.89
2018-03-09T08:39:03.541Z,100170.18
2018-03-09T08:41:38.792Z,100165.35
2018-03-09T08:46:54.027Z,100183.44
2018-03-09T08:49:29.039Z,100184.83
2018-03-09T08:52:04.183Z,100183.55
2018-03-09T08:54:39.193Z,100194.51
2018-03-09T08:57:14.507Z,100191.95
2018-03-09T08:59:49.695Z,100194.98
2018-03-09T09:02:24.952Z,100197.33
2018-03-09T09:05:00.059Z,100194.66
2018-03-09T09:07:35.567Z,100202.02
2018-03-09T09:10:10.947Z,100201.64
2018-03-09T09:12:46.083Z,100201.32
2018-03-09T09:15:21.187Z,100202.66
2018-03-09T09:17:56.768Z,100206.42
2018-03-09T09:20:31.977Z,100209.42
2018-03-09T09:23:07.196Z,100211.78
2018-03-09T09:25:42.685Z,100214.72
2018-03-09T09:28:17.990Z,100210.06
2018-03-09T09:30:52.820Z,100220.89
2018-03-09T09:33:27.863Z,100211.03
2018-03-09T09:36:04.072Z,100217.78
2018-03-09T09:38:38.815Z,100222.61
2018-03-09T09:41:14.036Z,100220.08
2018-03-09T09:43:49.046Z,100226.73
2018-03-09T09:46:24.071Z,100232.67
2018-03-09T09:48:59.190Z,100223.70
2018-03-09T09:51:34.983Z,100233.13
2018-03-09T09:54:10.231Z,100228.28
2018-03-09T09:56:45.150Z,100230.63
2018-03-09T09:59:19.832Z,100236.24
2018-03-09T10:01:54.954Z,100230.71
2018-03-09T10:04:30.162Z,100238.59
2018-03-09T10:07:05.112Z,100240.37
2018-03-09T10:09:40.179Z,100237.66
2018-03-09T10:12:15.699Z,100241.10
2018-03-09T10:14:50.983Z,100244.85
2018-03-09T10:17:25.884Z,100240.97
2018-03-09T10:20:00.836Z,100251.53
2018-03-09T10:22:36.068Z,100251.92
2018-03-09T10:25:11.076Z,100259.39
2018-03-09T10:27:46.114Z,100244.70
2018-03-09T10:30:21.244Z,100246.89
2018-03-09T10:32:57.536Z,100251.80
2018-03-09T10:35:32.902Z,100258.28
2018-03-09T10:38:09.227Z,100258.73
2018-03-09T10:40:44.340Z,100259.36
2018-03-09T10:43:19.356Z,100263.54
2018-03-09T10:45:54.876Z,100268.64
2018-03-09T10:48:29.991Z,100269.44
2018-03-09T10:51:05.164Z,100254.00
2018-03-09T10:53:39.988Z,100256.47
2018-03-09T10:56:15.167Z,100260.80
2018-03-09T10:58:49.971Z,100264.76
2018-03-09T11:01:25.182Z,100263.49
2018-03-09T11:04:00.027Z,100264.60
2018-03-09T11:06:35.002Z,100265.31
2018-03-09T11:09:10.276Z,100277.31
2018-03-09T11:11:44.980Z,100273.31
2018-03-09T11:14:20.201Z,100281.60
2018-03-09T11:16:54.955Z,100279.13
2018-03-09T11:19:30.015Z,100280.47
2018-03-09T11:22:05.092Z,100285.69
2018-03-09T11:24:40.135Z,100285.30
2018-03-09T11:27:15.347Z,100283.91
2018-03-09T11:29:50.284Z,100287.17
2018-03-09T11:32:25.336Z,100284.77
2018-03-09T11:35:01.354Z,100289.31
2018-03-09T11:37:36.090Z,100282.96
2018-03-09T11:40:11.229Z,100281.86
2018-03-09T11:42:46.259Z,100286.44
2018-03-09T11:45:21.506Z,100285.50
2018-03-09T11:47:56.479Z,100289.53
2018-03-09T11:50:31.880Z,100283.77
2018-03-09T11:53:07.019Z,100282.13
2018-03-09T11:55:42.008Z,100285.75
2018-03-09T11:58:17.297Z,100283.45
2018-03-09T12:00:52.142Z,100276.10
2018-03-09T12:03:26.991Z,100282.84
2018-03-09T12:06:02.050Z,100280.64
2018-03-09T12:08:37.105Z,100276.06
2018-03-09T12:11:12.003Z,100282.18
2018-03-09T12:13:47.065Z,100284.83
2018-03-09T12:16:22.407Z,100277.24
2018-03-09T12:18:57.691Z,100278.61
2018-03-09T12:21:33.022Z,100280.20
2018-03-09T12:24:08.043Z,100280.91
2018-03-09T12:26:43.055Z,100267.27
2018-03-09T12:29:18.071Z,100275.03
2018-03-09T12:31:53.113Z,100277.94
2018-03-09T12:34:29.007Z,100267.95
2018-03-09T12:37:04.266Z,100273.95
2018-03-09T12:39:39.472Z,100263.87
2018-03-09T12:42:14.498Z,100257.07
2018-03-09T12:44:49.548Z,100269.19
2018-03-09T12:47:25.174Z,100266.31
2018-03-09T12:50:00.175Z,100260.55
2018-03-09T12:52:35.163Z,100262.59
2018-03-09T12:55:10.686Z,100257.49
2018-03-09T12:57:45.709Z,100259.88
2018-03-09T13:00:20.415Z,100264.88
2018-03-09T13:02:55.268Z,100262.16
2018-03-09T13:05:30.235Z,100259.61
2018-03-09T13:08:05.229Z,100266.59
2018-03-09T13:10:40.015Z,100272.67
2018-03-09T13:13:17.215Z,100271.73
2018-03-09T13:15:53.760Z,100263.84
2018-03-09T13:18:33.805Z,100263.91
2018-03-09T13:21:09.620Z,100266.46
2018-03-09T13:23:44.511Z,100260.84
2018-03-09T13:26:19.651Z,100272.03
2018-03-09T13:28:54.596Z,100270.48
2018-03-09T13:31:29.630Z,100267.02
2018-03-09T13:34:04.451Z,100266.30
2018-03-09T13:36:39.413Z,100268.69
2018-03-09T13:39:14.451Z,100270.13
2018-03-09T13:41:49.587Z,100265.34
2018-03-09T13:44:24.645Z,100271.41
2018-03-09T13:46:59.875Z,100270.27
2018-03-09T13:49:35.203Z,100259.55
2018-03-09T13:52:10.652Z,100260.30
2018-03-09T13:54:46.195Z,100249.77
2018-03-09T13:57:21.439Z,100251.30
2018-03-09T13:59:56.524Z,100250.13
2018-03-09T14:02:31.672Z,100251.53
2018-03-09T14:05:07.262Z,100260.91
2018-03-09T14:07:42.239Z,100260.97
2018-03-09T14:10:17.515Z,100258.20
2018-03-09T14:12:52.466Z,100262.11
2018-03-09T14:15:26.804Z,100260.74
2018-03-09T14:18:01.777Z,100259.98
2018-03-09T14:20:36.955Z,100262.09
2018-03-09T14:23:11.792Z,100256.34
2018-03-09T14:25:47.279Z,100260.97
2018-03-09T14:28:22.523Z,100259.73
2018-03-09T14:30:57.433Z,100267.91
2018-03-09T14:33:32.030Z,100274.94
2018-03-09T14:36:07.502Z,100266.03
2018-03-09T14:38:42.367Z,100265.56
2018-03-09T14:41:17.406Z,100262.48
2018-03-09T14:43:52.356Z,100258.69
2018-03-09T14:46:27.603Z,100254.50
2018-03-09T14:49:02.492Z,100257.81
2018-03-09T14:51:37.459Z,100260.25
2018-03-09T14:54:12.659Z,100258.95
2018-03-09T14:56:47.716Z,100259.66
2018-03-09T14:59:23.272Z,100263.31
2018-03-09T15:01:58.386Z,100270.55
2018-03-09T15:04:33.630Z,100267.86
2018-03-09T15:07:09.707Z,100262.62
2018-03-09T15:09:44.486Z,100265.09
2018-03-09T15:12:19.695Z,100269.69
2018-03-09T15:14:54.857Z,100268.08
2018-03-09T15:17:29.807Z,100266.84
2018-03-09T15:20:04.435Z,100265.33
2018-03-09T15:22:39.707Z,100260.68
2018-03-09T15:25:15.070Z,100258.91
2018-03-09T15:27:50.035Z,100262.62
2018-03-09T15:30:24.810Z,100260.75
2018-03-09T15:32:59.664Z,100260.82
2018-03-09T15:35:34.554Z,100255.72
2018-03-09T15:38:09.374Z,100254.97
2018-03-09T15:40:44.635Z,100253.03
2018-03-09T15:43:19.959Z,100250.01
2018-03-09T15:45:54.836Z,100253.87
2018-03-09T15:48:29.470Z,100245.39
2018-03-09T15:51:04.228Z,100233.30
2018-03-09T15:53:39.503Z,100235.70
2018-03-09T15:56:14.772Z,100228.55
2018-03-09T15:58:50.019Z,100230.14
2018-03-09T16:01:25.050Z,100228.36
2018-03-09T16:04:00.529Z,100225.43
2018-03-09T16:06:35.632Z,100233.96
2018-03-09T16:09:10.948Z,100227.55
2018-03-09T16:11:47.596Z,100232.81
2018-03-09T16:14:22.868Z,100230.43
2018-03-09T16:16:57.589Z,100228.08
2018-03-09T16:19:32.663Z,100235.56
2018-03-09T16:22:07.020Z,100227.27
2018-03-09T16:24:41.668Z,100235.72
2018-03-09T16:27:16.833Z,100243.77
2018-03-09T16:29:51.897Z,100234.67
2018-03-09T16:32:27.158Z,100244.52
2018-03-09T16:35:02.621Z,100239.23
2018-03-09T16:37:37.883Z,100244.52
2018-03-09T16:40:13.010Z,100238.69
2018-03-09T16:42:47.882Z,100232.38
2018-03-09T16:45:22.683Z,100238.30
2018-03-09T16:47:57.687Z,100236.44
2018-03-09T16:50:32.811Z,100230.45
2018-03-09T16:53:07.874Z,100239.73
2018-03-09T16:55:43.474Z,100236.33
2018-03-09T16:58:18.947Z,100243.30
2018-03-09T17:00:53.765Z,100237.19
2018-03-09T17:03:28.814Z,100239.51
2018-03-09T17:06:03.861Z,100235.95
2018-03-09T17:08:38.731Z,100236.97
2018-03-09T17:11:14.043Z,100236.54
2018-03-09T17:13:48.979Z,100233.05
2018-03-09T17:16:24.438Z,100228.70
2018-03-09T17:18:59.328Z,100238.56
2018-03-09T17:21:34.670Z,100239.92
2018-03-09T17:24:10.149Z,100237.47
2018-03-09T17:26:45.459Z,100240.53
2018-03-09T17:29:20.795Z,100235.44
2018-03-09T17:31:55.850Z,100238.58
2018-03-09T17:34:30.883Z,100243.14
2018-03-09T17:37:04.819Z,100249.31
2018-03-09T17:39:39.856Z,100250.21
2018-03-09T17:42:15.310Z,100251.17
2018-03-09T17:44:50.106Z,100250.11
2018-03-09T17:47:25.010Z,100251.88
2018-03-09T17:50:00.316Z,100248.44
2018-03-09T17:52:35.230Z,100247.89
2018-03-09T17:55:10.163Z,100245.73
2018-03-09T17:57:45.212Z,100243.03
2018-03-09T18:00:20.891Z,100242.14
2018-03-09T18:02:55.760Z,100247.35
2018-03-09T18:05:30.295Z,100243.77
2018-03-09T18:08:05.128Z,100244.58
2018-03-09T18:10:40.338Z,100249.84
2018-03-09T18:13:15.550Z,100242.77
2018-03-09T18:15:50.431Z,100234.59
2018-03-09T18:18:25.898Z,100245.30
2018-03-09T18:21:00.908Z,100244.92
2018-03-09T18:23:48.508Z,100236.70
2018-03-09T18:26:23.425Z,100251.45
2018-03-09T18:28:58.160Z,100240.68
2018-03-09T18:31:33.211Z,100240.24
2018-03-09T18:34:08.064Z,100237.63
2018-03-09T18:36:42.976Z,100244.17
2018-03-09T18:39:18.198Z,100243.42
2018-03-09T18:41:53.291Z,100248.96
2018-03-09T18:44:28.218Z,100251.33
2018-03-09T18:47:03.114Z,100246.91
2018-03-09T18:49:38.409Z,100253.56
2018-03-09T18:52:14.157Z,100251.37
2018-03-09T18:54:49.014Z,100257.52
2018-03-09T18:57:24.406Z,100249.05
2018-03-09T19:00:00.059Z,100258.03
2018-03-09T19:02:34.987Z,100256.00
2018-03-09T19:05:10.375Z,100255.66
2018-03-09T19:07:44.950Z,100257.86
2018-03-09T19:10:20.182Z,100251.63
2018-03-09T19:12:55.090Z,100239.79
2018-03-09T19:15:30.070Z,100239.27
2018-03-09T19:18:04.696Z,100242.80
2018-03-09T19:20:39.031Z,100232.02
2018-03-09T19:23:14.211Z,100231.95
2018-03-09T19:25:49.236Z,100223.61
2018-03-09T19:28:24.364Z,100223.87
2018-03-09T19:30:59.235Z,100212.20
2018-03-09T19:33:34.275Z,100220.55
2018-03-09T19:36:10.411Z,100212.78
2018-03-09T19:38:44.830Z,100220.67
2018-03-09T19:41:20.091Z,100211.89
2018-03-09T19:43:55.118Z,100207.44
2018-03-09T19:46:30.325Z,100208.90
2018-03-09T19:49:04.563Z,100208.41
2018-03-09T19:51:39.281Z,100208.14
2018-03-09T19:54:14.499Z,100204.81
2018-03-09T19:56:49.987Z,100202.09
2018-03-09T19:59:25.033Z,100203.69
2018-03-09T20:02:00.106Z,100205.27
2018-03-09T20:04:34.854Z,100195.84
2018-03-09T20:07:10.395Z,100194.94
2018-03-09T20:09:45.655Z,100201.20
2018-03-09T20:12:20.337Z,100200.88
2018-03-09T20:14:55.563Z,100195.52
2018-03-09T20:17:30.555Z,100191.91
2018-03-09T20:20:05.347Z,100183.11
2018-03-09T20:22:40.400Z,100195.30
2018-03-09T20:25:16.226Z,100181.41
2018-03-09T20:27:50.596Z,100181.98
2018-03-09T20:30:26.023Z,100183.76
2018-03-09T20:33:01.344Z,100176.23
2018-03-09T20:35:36.015Z,100173.12
2018-03-09T20:38:11.104Z,100178.98
2018-03-09T20:40:46.150Z,100175.93
2018-03-09T20:43:21.400Z,100184.83
2018-03-09T20:45:56.383Z,100173.12
2018-03-09T20:48:31.384Z,100175.67
2018-03-09T20:51:08.947Z,100173.90
2018-03-09T20:53:43.244Z,100169.56
2018-03-09T20:56:18.523Z,100172.41
2018-03-09T20:58:53.188Z,100171.89
2018-03-09T21:01:28.154Z,100184.14
2018-03-09T21:04:03.304Z,100168.91
2018-03-09T21:06:38.274Z,100169.30
2018-03-09T21:09:13.571Z,100159.74
2018-03-09T21:11:48.627Z,100164.97
2018-03-09T21:14:23.699Z,100163.90
2018-03-09T21:16:58.263Z,100163.38
2018-03-09T21:19:33.276Z,100164.89
2018-03-09T21:22:08.740Z,100170.06
2018-03-09T21:24:44.198Z,100162.48
2018-03-09T21:27:18.792Z,100162.74
2018-03-09T21:29:53.276Z,100160.13
2018-03-09T21:32:28.412Z,100158.59
2018-03-09T21:35:03.255Z,100155.16
2018-03-09T21:37:38.398Z,100153.11
2018-03-09T21:40:13.531Z,100151.72
2018-03-09T21:42:48.361Z,100145.09
2018-03-09T21:45:23.550Z,100144.34
2018-03-09T21:47:58.384Z,100147.71
2018-03-09T21:50:33.318Z,100146.69
2018-03-09T21:53:08.567Z,100139.80
2018-03-09T21:55:43.598Z,100146.26
2018-03-09T21:58:18.562Z,100140.02
2018-03-09T22:00:53.270Z,100144.55
2018-03-09T22:03:27.606Z,100140.83
2018-03-09T22:06:02.342Z,100129.11
2018-03-09T22:08:36.684Z,100132.83
2018-03-09T22:11:12.239Z,100128.94
2018-03-09T22:13:47.336Z,100130.91
2018-03-09T22:16:22.279Z,100130.53
2018-03-09T22:18:57.572Z,100128.36
2018-03-09T22:21:32.447Z,100128.23
2018-03-09T22:24:07.411Z,100119.14
2018-03-09T22:26:42.451Z,100116.39
2018-03-09T22:29:16.784Z,100109.00
2018-03-09T22:31:52.216Z,100114.93
2018-03-09T22:34:26.850Z,100106.97
2018-03-09T22:37:01.916Z,100100.48
2018-03-09T22:39:36.743Z,100100.92
2018-03-09T22:42:11.194Z,100103.22
2018-03-09T22:44:46.315Z,100099.85
2018-03-09T22:47:21.898Z,100101.06
2018-03-09T22:49:56.548Z,100091.06
2018-03-09T22:52:31.806Z,100084.11
2018-03-09T22:55:06.434Z,100082.35
2018-03-09T22:57:41.575Z,100089.14
2018-03-09T23:00:16.699Z,100074.94
2018-03-09T23:02:51.847Z,100077.05
2018-03-09T23:05:26.878Z,100073.59
2018-03-09T23:08:01.745Z,100075.43
2018-03-09T23:10:36.896Z,100068.38
2018-03-09T23:13:12.718Z,100055.00
2018-03-09T23:15:47.544Z,100059.94
2018-03-09T23:18:22.034Z,100066.67
2018-03-09T23:20:57.522Z,100057.61
2018-03-09T23:23:32.511Z,100057.39
2018-03-09T23:26:07.552Z,100051.56
2018-03-09T23:28:41.899Z,100047.61
2018-03-09T23:31:16.967Z,100043.46
2018-03-09T23:33:51.811Z,100043.59
2018-03-09T23:36:26.547Z,100035.65
2018-03-09T23:39:01.777Z,100026.34
2018-03-09T23:41:36.834Z,100027.28
2018-03-09T23:44:11.695Z,100015.52
2018-03-09T23:46:46.617Z,100016.14
2018-03-09T23:49:22.054Z,100010.70
2018-03-09T23:51:56.692Z,99997.93
2018-03-09T23:54:31.643Z,100001.76
2018-03-09T23:57:06.638Z,99985.54
2018-03-09T23:59:42.123Z,99992.95
